sensor_id;sensor_type;location;lat;lon;timestamp;P1;durP1;ratioP1;P2;durP2;ratioP2
10805;SDS011;5455;53.224;6.000;2023-05-10T00:00:45;1.13;;;1.10;;
10805;SDS011;5455;53.224;6.000;2023-05-10T00:03:12;1.50;;;1.40;;
10805;SDS011;5455;53.224;6.000;2023-05-10T00:05:40;1.40;;;1.30;;
10805;SDS011;5455;53.224;6.000;2023-05-10T00:08:07;1.30;;;1.20;;
10805;SDS011;5455;53.224;6.000;2023-05-10T00:10:34;1.20;;;1.10;;
10805;SDS011;5455;53.224;6.000;2023-05-10T00:13:02;11.07;;;7.60;;
10805;SDS011;5455;53.224;6.000;2023-05-10T00:15:29;1.60;;;1.50;;
10805;SDS011;5455;53.224;6.000;2023-05-10T00:17:57;1.50;;;1.40;;
10805;SDS011;5455;53.224;6.000;2023-05-10T00:20:24;1.30;;;1.20;;
10805;SDS011;5455;53.224;6.000;2023-05-10T00:22:51;1.60;;;1.50;;
10805;SDS011;5455;53.224;6.000;2023-05-10T00:25:18;2.00;;;1.80;;
10805;SDS011;5455;53.224;6.000;2023-05-10T00:27:44;1.60;;;1.50;;
10805;SDS011;5455;53.224;6.000;2023-05-10T00:30:11;1.90;;;1.80;;
10805;SDS011;5455;53.224;6.000;2023-05-10T00:32:39;3.13;;;1.87;;
10805;SDS011;5455;53.224;6.000;2023-05-10T00:35:06;1.90;;;1.80;;
10805;SDS011;5455;53.224;6.000;2023-05-10T00:37:33;3.13;;;2.20;;
10805;SDS011;5455;53.224;6.000;2023-05-10T00:40:00;2.33;;;2.13;;
10805;SDS011;5455;53.224;6.000;2023-05-10T00:42:27;2.07;;;1.97;;
10805;SDS011;5455;53.224;6.000;2023-05-10T00:44:55;3.30;;;1.97;;
10805;SDS011;5455;53.224;6.000;2023-05-10T00:47:22;2.20;;;2.10;;
10805;SDS011;5455;53.224;6.000;2023-05-10T00:49:50;2.00;;;1.80;;
10805;SDS011;5455;53.224;6.000;2023-05-10T00:52:18;1.90;;;1.80;;
10805;SDS011;5455;53.224;6.000;2023-05-10T00:54:46;1.37;;;1.27;;
10805;SDS011;5455;53.224;6.000;2023-05-10T00:57:14;1.40;;;1.30;;
10805;SDS011;5455;53.224;6.000;2023-05-10T00:59:41;1.50;;;1.40;;
10805;SDS011;5455;53.224;6.000;2023-05-10T01:02:08;2.23;;;1.30;;
10805;SDS011;5455;53.224;6.000;2023-05-10T01:04:35;1.10;;;1.10;;
10805;SDS011;5455;53.224;6.000;2023-05-10T01:07:02;1.23;;;1.00;;
10805;SDS011;5455;53.224;6.000;2023-05-10T01:09:29;1.00;;;0.90;;
10805;SDS011;5455;53.224;6.000;2023-05-10T01:11:57;1.80;;;1.00;;
10805;SDS011;5455;53.224;6.000;2023-05-10T01:14:24;0.90;;;0.90;;
10805;SDS011;5455;53.224;6.000;2023-05-10T01:16:53;1.27;;;1.17;;
10805;SDS011;5455;53.224;6.000;2023-05-10T01:19:24;1.70;;;1.20;;
10805;SDS011;5455;53.224;6.000;2023-05-10T01:33:06;4.67;;;3.57;;
10805;SDS011;5455;53.224;6.000;2023-05-10T01:38:42;6.77;;;4.67;;
10805;SDS011;5455;53.224;6.000;2023-05-10T01:41:22;7.90;;;5.07;;
10805;SDS011;5455;53.224;6.000;2023-05-10T01:46:24;7.53;;;4.77;;
10805;SDS011;5455;53.224;6.000;2023-05-10T01:48:55;5.83;;;4.57;;
10805;SDS011;5455;53.224;6.000;2023-05-10T01:51:27;7.67;;;4.67;;
10805;SDS011;5455;53.224;6.000;2023-05-10T01:54:03;6.63;;;4.53;;
10805;SDS011;5455;53.224;6.000;2023-05-10T01:56:33;7.67;;;5.07;;
10805;SDS011;5455;53.224;6.000;2023-05-10T01:59:05;9.03;;;5.17;;
10805;SDS011;5455;53.224;6.000;2023-05-10T02:01:35;6.63;;;4.53;;
10805;SDS011;5455;53.224;6.000;2023-05-10T02:04:04;7.10;;;4.47;;
10805;SDS011;5455;53.224;6.000;2023-05-10T02:06:35;7.23;;;4.30;;
10805;SDS011;5455;53.224;6.000;2023-05-10T02:09:04;7.83;;;4.70;;
10805;SDS011;5455;53.224;6.000;2023-05-10T02:11:33;5.10;;;3.63;;
10805;SDS011;5455;53.224;6.000;2023-05-10T02:14:00;5.53;;;3.67;;
10805;SDS011;5455;53.224;6.000;2023-05-10T02:16:28;8.63;;;4.10;;
10805;SDS011;5455;53.224;6.000;2023-05-10T02:18:58;6.40;;;4.37;;
10805;SDS011;5455;53.224;6.000;2023-05-10T02:21:27;6.97;;;4.40;;
10805;SDS011;5455;53.224;6.000;2023-05-10T02:23:56;3.87;;;2.80;;
10805;SDS011;5455;53.224;6.000;2023-05-10T02:26:24;4.63;;;3.13;;
10805;SDS011;5455;53.224;6.000;2023-05-10T02:28:53;3.70;;;3.10;;
10805;SDS011;5455;53.224;6.000;2023-05-10T02:31:21;4.87;;;3.07;;
10805;SDS011;5455;53.224;6.000;2023-05-10T02:33:49;3.77;;;2.60;;
10805;SDS011;5455;53.224;6.000;2023-05-10T02:36:17;3.37;;;2.57;;
10805;SDS011;5455;53.224;6.000;2023-05-10T02:38:46;1.80;;;1.70;;
10805;SDS011;5455;53.224;6.000;2023-05-10T02:41:15;1.50;;;1.40;;
10805;SDS011;5455;53.224;6.000;2023-05-10T02:43:43;1.23;;;1.03;;
10805;SDS011;5455;53.224;6.000;2023-05-10T02:46:11;1.00;;;1.00;;
10805;SDS011;5455;53.224;6.000;2023-05-10T02:48:37;1.07;;;0.97;;
10805;SDS011;5455;53.224;6.000;2023-05-10T02:51:05;0.80;;;0.80;;
10805;SDS011;5455;53.224;6.000;2023-05-10T02:53:34;0.70;;;0.70;;
10805;SDS011;5455;53.224;6.000;2023-05-10T02:56:05;0.60;;;0.60;;
10805;SDS011;5455;53.224;6.000;2023-05-10T02:58:40;0.43;;;0.43;;
10805;SDS011;5455;53.224;6.000;2023-05-10T03:01:07;0.97;;;0.50;;
10805;SDS011;5455;53.224;6.000;2023-05-10T03:03:34;0.50;;;0.50;;
10805;SDS011;5455;53.224;6.000;2023-05-10T03:06:01;0.50;;;0.50;;
10805;SDS011;5455;53.224;6.000;2023-05-10T03:08:29;0.60;;;0.60;;
10805;SDS011;5455;53.224;6.000;2023-05-10T03:11:01;0.47;;;0.47;;
10805;SDS011;5455;53.224;6.000;2023-05-10T03:13:44;0.50;;;0.50;;
10805;SDS011;5455;53.224;6.000;2023-05-10T03:16:15;0.40;;;0.40;;
10805;SDS011;5455;53.224;6.000;2023-05-10T03:19:06;0.30;;;0.30;;
10805;SDS011;5455;53.224;6.000;2023-05-10T03:21:37;0.30;;;0.30;;
10805;SDS011;5455;53.224;6.000;2023-05-10T03:24:09;0.30;;;0.30;;
10805;SDS011;5455;53.224;6.000;2023-05-10T03:26:39;0.50;;;0.27;;
10805;SDS011;5455;53.224;6.000;2023-05-10T03:29:12;0.40;;;0.40;;
10805;SDS011;5455;53.224;6.000;2023-05-10T03:31:41;0.40;;;0.30;;
10805;SDS011;5455;53.224;6.000;2023-05-10T03:34:09;1.50;;;0.70;;
10805;SDS011;5455;53.224;6.000;2023-05-10T03:36:35;1.57;;;1.00;;
10805;SDS011;5455;53.224;6.000;2023-05-10T03:39:02;1.10;;;0.93;;
10805;SDS011;5455;53.224;6.000;2023-05-10T03:41:30;3.27;;;1.10;;
10805;SDS011;5455;53.224;6.000;2023-05-10T03:43:57;1.50;;;1.10;;
10805;SDS011;5455;53.224;6.000;2023-05-10T03:46:24;1.63;;;1.17;;
10805;SDS011;5455;53.224;6.000;2023-05-10T03:48:51;3.73;;;1.93;;
10805;SDS011;5455;53.224;6.000;2023-05-10T03:51:18;2.87;;;2.00;;
10805;SDS011;5455;53.224;6.000;2023-05-10T03:53:46;4.67;;;2.57;;
10805;SDS011;5455;53.224;6.000;2023-05-10T03:56:13;2.77;;;2.37;;
10805;SDS011;5455;53.224;6.000;2023-05-10T03:58:40;5.50;;;3.00;;
10805;SDS011;5455;53.224;6.000;2023-05-10T04:01:07;4.37;;;2.70;;
10805;SDS011;5455;53.224;6.000;2023-05-10T04:03:34;4.20;;;2.83;;
10805;SDS011;5455;53.224;6.000;2023-05-10T04:06:04;4.47;;;3.20;;
10805;SDS011;5455;53.224;6.000;2023-05-10T04:08:32;4.63;;;3.17;;
10805;SDS011;5455;53.224;6.000;2023-05-10T04:11:06;5.20;;;3.43;;
10805;SDS011;5455;53.224;6.000;2023-05-10T04:13:34;4.53;;;3.33;;
10805;SDS011;5455;53.224;6.000;2023-05-10T04:16:01;4.10;;;3.03;;
10805;SDS011;5455;53.224;6.000;2023-05-10T04:18:28;4.47;;;3.40;;
10805;SDS011;5455;53.224;6.000;2023-05-10T04:20:55;4.00;;;3.30;;
10805;SDS011;5455;53.224;6.000;2023-05-10T04:23:22;3.93;;;2.97;;
10805;SDS011;5455;53.224;6.000;2023-05-10T04:25:49;3.10;;;2.80;;
10805;SDS011;5455;53.224;6.000;2023-05-10T04:28:16;3.20;;;2.90;;
10805;SDS011;5455;53.224;6.000;2023-05-10T04:30:43;2.73;;;2.47;;
10805;SDS011;5455;53.224;6.000;2023-05-10T04:33:10;4.80;;;3.53;;
10805;SDS011;5455;53.224;6.000;2023-05-10T04:35:37;4.97;;;3.77;;
10805;SDS011;5455;53.224;6.000;2023-05-10T04:38:05;7.60;;;5.30;;
10805;SDS011;5455;53.224;6.000;2023-05-10T04:40:32;8.30;;;5.47;;
10805;SDS011;5455;53.224;6.000;2023-05-10T04:42:59;8.50;;;6.00;;
10805;SDS011;5455;53.224;6.000;2023-05-10T04:45:26;8.93;;;5.97;;
10805;SDS011;5455;53.224;6.000;2023-05-10T04:47:52;7.43;;;5.83;;
10805;SDS011;5455;53.224;6.000;2023-05-10T04:50:19;6.00;;;4.77;;
10805;SDS011;5455;53.224;6.000;2023-05-10T04:52:46;5.70;;;4.97;;
10805;SDS011;5455;53.224;6.000;2023-05-10T04:55:13;4.00;;;3.60;;
10805;SDS011;5455;53.224;6.000;2023-05-10T04:57:40;3.87;;;3.17;;
10805;SDS011;5455;53.224;6.000;2023-05-10T05:00:07;2.60;;;2.40;;
10805;SDS011;5455;53.224;6.000;2023-05-10T05:02:35;2.77;;;2.57;;
10805;SDS011;5455;53.224;6.000;2023-05-10T05:05:02;2.60;;;2.40;;
10805;SDS011;5455;53.224;6.000;2023-05-10T05:07:30;2.10;;;1.90;;
10805;SDS011;5455;53.224;6.000;2023-05-10T05:09:57;2.00;;;1.33;;
10805;SDS011;5455;53.224;6.000;2023-05-10T05:12:24;1.00;;;1.00;;
10805;SDS011;5455;53.224;6.000;2023-05-10T05:14:51;2.63;;;0.60;;
10805;SDS011;5455;53.224;6.000;2023-05-10T05:17:19;0.40;;;0.40;;
10805;SDS011;5455;53.224;6.000;2023-05-10T05:19:46;0.37;;;0.37;;
10805;SDS011;5455;53.224;6.000;2023-05-10T05:22:13;0.40;;;0.40;;
10805;SDS011;5455;53.224;6.000;2023-05-10T05:24:44;0.50;;;0.50;;
10805;SDS011;5455;53.224;6.000;2023-05-10T05:27:12;0.60;;;0.60;;
10805;SDS011;5455;53.224;6.000;2023-05-10T05:29:39;0.70;;;0.70;;
10805;SDS011;5455;53.224;6.000;2023-05-10T05:32:06;0.70;;;0.70;;
10805;SDS011;5455;53.224;6.000;2023-05-10T05:34:35;0.87;;;0.87;;
10805;SDS011;5455;53.224;6.000;2023-05-10T05:37:02;1.00;;;1.00;;
10805;SDS011;5455;53.224;6.000;2023-05-10T05:39:29;1.00;;;0.90;;
10805;SDS011;5455;53.224;6.000;2023-05-10T05:41:56;1.30;;;1.20;;
10805;SDS011;5455;53.224;6.000;2023-05-10T05:44:22;0.90;;;0.90;;
10805;SDS011;5455;53.224;6.000;2023-05-10T05:46:49;1.40;;;1.10;;
10805;SDS011;5455;53.224;6.000;2023-05-10T05:49:16;1.30;;;1.20;;
10805;SDS011;5455;53.224;6.000;2023-05-10T05:51:43;2.33;;;1.20;;
10805;SDS011;5455;53.224;6.000;2023-05-10T05:54:10;1.40;;;1.30;;
10805;SDS011;5455;53.224;6.000;2023-05-10T05:56:38;2.50;;;1.60;;
10805;SDS011;5455;53.224;6.000;2023-05-10T05:59:05;1.70;;;1.50;;
10805;SDS011;5455;53.224;6.000;2023-05-10T06:01:32;3.23;;;1.80;;
10805;SDS011;5455;53.224;6.000;2023-05-10T06:03:59;2.80;;;1.87;;
10805;SDS011;5455;53.224;6.000;2023-05-10T06:06:27;2.00;;;1.80;;
10805;SDS011;5455;53.224;6.000;2023-05-10T06:08:54;2.20;;;1.97;;
10805;SDS011;5455;53.224;6.000;2023-05-10T06:11:21;2.90;;;1.87;;
10805;SDS011;5455;53.224;6.000;2023-05-10T06:13:49;2.17;;;1.80;;
10805;SDS011;5455;53.224;6.000;2023-05-10T06:16:16;2.07;;;1.87;;
10805;SDS011;5455;53.224;6.000;2023-05-10T06:18:44;1.97;;;1.60;;
10805;SDS011;5455;53.224;6.000;2023-05-10T06:21:11;1.80;;;1.70;;
10805;SDS011;5455;53.224;6.000;2023-05-10T06:23:38;1.93;;;1.73;;
10805;SDS011;5455;53.224;6.000;2023-05-10T06:26:05;1.47;;;1.37;;
10805;SDS011;5455;53.224;6.000;2023-05-10T06:28:31;2.53;;;1.60;;
10805;SDS011;5455;53.224;6.000;2023-05-10T06:30:59;1.50;;;1.37;;
10805;SDS011;5455;53.224;6.000;2023-05-10T06:33:27;1.93;;;1.40;;
10805;SDS011;5455;53.224;6.000;2023-05-10T06:35:54;1.77;;;1.30;;
10805;SDS011;5455;53.224;6.000;2023-05-10T06:38:22;1.07;;;0.90;;
10805;SDS011;5455;53.224;6.000;2023-05-10T06:40:49;1.00;;;0.90;;
10805;SDS011;5455;53.224;6.000;2023-05-10T06:43:16;1.20;;;0.90;;
10805;SDS011;5455;53.224;6.000;2023-05-10T06:45:43;1.00;;;0.90;;
10805;SDS011;5455;53.224;6.000;2023-05-10T06:48:10;2.63;;;0.80;;
10805;SDS011;5455;53.224;6.000;2023-05-10T06:50:37;1.23;;;0.93;;
10805;SDS011;5455;53.224;6.000;2023-05-10T06:53:04;0.97;;;0.70;;
10805;SDS011;5455;53.224;6.000;2023-05-10T06:55:31;0.63;;;0.57;;
10805;SDS011;5455;53.224;6.000;2023-05-10T06:57:58;0.90;;;0.70;;
10805;SDS011;5455;53.224;6.000;2023-05-10T07:00:25;0.70;;;0.70;;
10805;SDS011;5455;53.224;6.000;2023-05-10T07:02:52;0.80;;;0.80;;
10805;SDS011;5455;53.224;6.000;2023-05-10T07:05:19;0.80;;;0.80;;
10805;SDS011;5455;53.224;6.000;2023-05-10T07:07:47;0.87;;;0.87;;
10805;SDS011;5455;53.224;6.000;2023-05-10T07:10:14;4.50;;;1.13;;
10805;SDS011;5455;53.224;6.000;2023-05-10T07:12:41;1.63;;;1.30;;
10805;SDS011;5455;53.224;6.000;2023-05-10T07:15:09;1.40;;;1.10;;
10805;SDS011;5455;53.224;6.000;2023-05-10T07:17:38;1.30;;;1.20;;
10805;SDS011;5455;53.224;6.000;2023-05-10T07:20:05;2.23;;;0.93;;
10805;SDS011;5455;53.224;6.000;2023-05-10T07:22:33;1.27;;;1.17;;
10805;SDS011;5455;53.224;6.000;2023-05-10T07:25:00;2.03;;;1.50;;
10805;SDS011;5455;53.224;6.000;2023-05-10T07:27:27;1.20;;;1.10;;
10805;SDS011;5455;53.224;6.000;2023-05-10T07:29:54;2.90;;;1.03;;
10805;SDS011;5455;53.224;6.000;2023-05-10T07:32:21;1.60;;;1.20;;
10805;SDS011;5455;53.224;6.000;2023-05-10T07:34:48;2.63;;;1.50;;
10805;SDS011;5455;53.224;6.000;2023-05-10T07:37:15;2.20;;;1.20;;
10805;SDS011;5455;53.224;6.000;2023-05-10T07:39:42;1.63;;;1.30;;
10805;SDS011;5455;53.224;6.000;2023-05-10T07:42:10;3.27;;;1.50;;
10805;SDS011;5455;53.224;6.000;2023-05-10T07:44:37;1.67;;;1.40;;
10805;SDS011;5455;53.224;6.000;2023-05-10T07:47:04;1.57;;;1.37;;
10805;SDS011;5455;53.224;6.000;2023-05-10T07:49:30;2.70;;;1.27;;
10805;SDS011;5455;53.224;6.000;2023-05-10T07:51:58;1.87;;;1.40;;
10805;SDS011;5455;53.224;6.000;2023-05-10T07:54:25;2.07;;;1.40;;
10805;SDS011;5455;53.224;6.000;2023-05-10T07:56:52;1.40;;;1.30;;
10805;SDS011;5455;53.224;6.000;2023-05-10T07:59:19;1.00;;;0.90;;
10805;SDS011;5455;53.224;6.000;2023-05-10T08:01:46;2.00;;;1.17;;
10805;SDS011;5455;53.224;6.000;2023-05-10T08:04:13;4.30;;;1.50;;
10805;SDS011;5455;53.224;6.000;2023-05-10T08:06:40;2.47;;;1.30;;
10805;SDS011;5455;53.224;6.000;2023-05-10T08:09:08;2.17;;;1.33;;
10805;SDS011;5455;53.224;6.000;2023-05-10T08:11:36;4.90;;;2.07;;
10805;SDS011;5455;53.224;6.000;2023-05-10T08:14:02;2.47;;;1.77;;
10805;SDS011;5455;53.224;6.000;2023-05-10T08:16:29;2.23;;;1.80;;
10805;SDS011;5455;53.224;6.000;2023-05-10T08:18:57;3.50;;;2.00;;
10805;SDS011;5455;53.224;6.000;2023-05-10T08:21:24;6.10;;;2.33;;
10805;SDS011;5455;53.224;6.000;2023-05-10T08:23:50;3.20;;;2.20;;
10805;SDS011;5455;53.224;6.000;2023-05-10T08:26:17;3.10;;;2.50;;
10805;SDS011;5455;53.224;6.000;2023-05-10T08:28:46;3.13;;;2.17;;
10805;SDS011;5455;53.224;6.000;2023-05-10T08:31:14;3.27;;;2.13;;
10805;SDS011;5455;53.224;6.000;2023-05-10T08:33:42;2.97;;;1.93;;
10805;SDS011;5455;53.224;6.000;2023-05-10T08:36:10;2.83;;;1.20;;
10805;SDS011;5455;53.224;6.000;2023-05-10T08:38:37;5.63;;;1.57;;
10805;SDS011;5455;53.224;6.000;2023-05-10T08:41:04;1.97;;;1.30;;
10805;SDS011;5455;53.224;6.000;2023-05-10T08:43:32;2.03;;;1.00;;
10805;SDS011;5455;53.224;6.000;2023-05-10T08:46:02;2.03;;;1.20;;
10805;SDS011;5455;53.224;6.000;2023-05-10T08:48:31;2.57;;;1.40;;
10805;SDS011;5455;53.224;6.000;2023-05-10T08:51:00;2.10;;;1.70;;
10805;SDS011;5455;53.224;6.000;2023-05-10T08:53:31;4.07;;;1.70;;
10805;SDS011;5455;53.224;6.000;2023-05-10T08:56:02;3.20;;;1.63;;
10805;SDS011;5455;53.224;6.000;2023-05-10T08:58:30;2.13;;;1.73;;
10805;SDS011;5455;53.224;6.000;2023-05-10T09:00:57;3.87;;;2.10;;
10805;SDS011;5455;53.224;6.000;2023-05-10T09:03:26;3.23;;;1.80;;
10805;SDS011;5455;53.224;6.000;2023-05-10T09:05:53;4.10;;;2.30;;
10805;SDS011;5455;53.224;6.000;2023-05-10T09:08:22;3.73;;;2.53;;
10805;SDS011;5455;53.224;6.000;2023-05-10T09:10:54;4.40;;;2.53;;
10805;SDS011;5455;53.224;6.000;2023-05-10T09:13:21;2.43;;;2.13;;
10805;SDS011;5455;53.224;6.000;2023-05-10T09:15:49;2.90;;;2.07;;
10805;SDS011;5455;53.224;6.000;2023-05-10T09:18:17;3.67;;;2.30;;
10805;SDS011;5455;53.224;6.000;2023-05-10T09:20:45;2.27;;;2.00;;
10805;SDS011;5455;53.224;6.000;2023-05-10T09:23:12;5.93;;;2.50;;
10805;SDS011;5455;53.224;6.000;2023-05-10T09:25:39;3.53;;;2.37;;
10805;SDS011;5455;53.224;6.000;2023-05-10T09:28:08;2.20;;;2.00;;
10805;SDS011;5455;53.224;6.000;2023-05-10T09:30:36;3.57;;;2.40;;
10805;SDS011;5455;53.224;6.000;2023-05-10T09:33:03;3.60;;;2.40;;
10805;SDS011;5455;53.224;6.000;2023-05-10T09:35:31;5.80;;;2.53;;
10805;SDS011;5455;53.224;6.000;2023-05-10T09:38:00;3.80;;;2.33;;
10805;SDS011;5455;53.224;6.000;2023-05-10T09:40:29;4.07;;;3.07;;
10805;SDS011;5455;53.224;6.000;2023-05-10T09:43:00;3.80;;;2.80;;
10805;SDS011;5455;53.224;6.000;2023-05-10T09:45:34;5.13;;;2.67;;
10805;SDS011;5455;53.224;6.000;2023-05-10T09:48:04;5.33;;;2.73;;
10805;SDS011;5455;53.224;6.000;2023-05-10T09:50:32;2.93;;;2.47;;
10805;SDS011;5455;53.224;6.000;2023-05-10T09:53:01;3.60;;;2.80;;
10805;SDS011;5455;53.224;6.000;2023-05-10T09:55:43;4.50;;;3.03;;
10805;SDS011;5455;53.224;6.000;2023-05-10T09:58:13;5.97;;;3.63;;
10805;SDS011;5455;53.224;6.000;2023-05-10T10:00:41;8.07;;;4.20;;
10805;SDS011;5455;53.224;6.000;2023-05-10T10:03:27;6.53;;;4.33;;
10805;SDS011;5455;53.224;6.000;2023-05-10T10:05:57;5.70;;;4.27;;
10805;SDS011;5455;53.224;6.000;2023-05-10T10:08:24;6.77;;;4.23;;
10805;SDS011;5455;53.224;6.000;2023-05-10T10:10:53;5.50;;;4.10;;
10805;SDS011;5455;53.224;6.000;2023-05-10T10:13:20;5.83;;;3.80;;
10805;SDS011;5455;53.224;6.000;2023-05-10T10:15:47;5.57;;;3.77;;
10805;SDS011;5455;53.224;6.000;2023-05-10T10:18:17;7.70;;;4.03;;
10805;SDS011;5455;53.224;6.000;2023-05-10T10:20:50;6.33;;;3.77;;
10805;SDS011;5455;53.224;6.000;2023-05-10T10:23:17;5.20;;;3.53;;
10805;SDS011;5455;53.224;6.000;2023-05-10T10:25:44;5.13;;;3.43;;
10805;SDS011;5455;53.224;6.000;2023-05-10T10:28:17;6.87;;;4.00;;
10805;SDS011;5455;53.224;6.000;2023-05-10T10:31:17;6.63;;;3.60;;
10805;SDS011;5455;53.224;6.000;2023-05-10T10:36:30;4.27;;;2.50;;
10805;SDS011;5455;53.224;6.000;2023-05-10T10:39:00;4.20;;;2.80;;
10805;SDS011;5455;53.224;6.000;2023-05-10T10:41:30;5.40;;;3.33;;
10805;SDS011;5455;53.224;6.000;2023-05-10T10:54:59;4.67;;;3.00;;
10805;SDS011;5455;53.224;6.000;2023-05-10T10:57:27;5.03;;;3.60;;
10805;SDS011;5455;53.224;6.000;2023-05-10T11:02:47;4.40;;;3.30;;
10805;SDS011;5455;53.224;6.000;2023-05-10T11:10:37;7.63;;;4.40;;
10805;SDS011;5455;53.224;6.000;2023-05-10T11:13:07;5.37;;;4.00;;
10805;SDS011;5455;53.224;6.000;2023-05-10T11:15:36;5.53;;;3.77;;
10805;SDS011;5455;53.224;6.000;2023-05-10T11:20:51;4.80;;;2.93;;
10805;SDS011;5455;53.224;6.000;2023-05-10T11:23:19;4.37;;;3.13;;
10805;SDS011;5455;53.224;6.000;2023-05-10T11:25:48;5.47;;;3.30;;
10805;SDS011;5455;53.224;6.000;2023-05-10T11:28:18;3.50;;;2.60;;
10805;SDS011;5455;53.224;6.000;2023-05-10T11:30:46;4.57;;;3.20;;
10805;SDS011;5455;53.224;6.000;2023-05-10T11:33:17;4.97;;;3.20;;
10805;SDS011;5455;53.224;6.000;2023-05-10T11:35:46;4.43;;;2.80;;
10805;SDS011;5455;53.224;6.000;2023-05-10T11:38:13;4.30;;;2.90;;
10805;SDS011;5455;53.224;6.000;2023-05-10T11:40:41;6.60;;;3.90;;
10805;SDS011;5455;53.224;6.000;2023-05-10T11:43:08;6.13;;;3.07;;
10805;SDS011;5455;53.224;6.000;2023-05-10T11:45:37;4.00;;;3.40;;
10805;SDS011;5455;53.224;6.000;2023-05-10T11:48:04;5.07;;;3.60;;
10805;SDS011;5455;53.224;6.000;2023-05-10T11:50:31;5.93;;;3.60;;
10805;SDS011;5455;53.224;6.000;2023-05-10T11:52:59;5.53;;;3.37;;
10805;SDS011;5455;53.224;6.000;2023-05-10T11:55:27;5.77;;;3.03;;
10805;SDS011;5455;53.224;6.000;2023-05-10T11:57:54;5.00;;;3.70;;
10805;SDS011;5455;53.224;6.000;2023-05-10T12:00:21;4.73;;;3.17;;
10805;SDS011;5455;53.224;6.000;2023-05-10T12:02:48;3.70;;;2.50;;
10805;SDS011;5455;53.224;6.000;2023-05-10T12:05:15;3.97;;;2.60;;
10805;SDS011;5455;53.224;6.000;2023-05-10T12:07:43;4.67;;;3.03;;
10805;SDS011;5455;53.224;6.000;2023-05-10T12:10:12;7.17;;;3.23;;
10805;SDS011;5455;53.224;6.000;2023-05-10T12:12:45;5.40;;;3.57;;
10805;SDS011;5455;53.224;6.000;2023-05-10T12:17:48;8.40;;;3.80;;
10805;SDS011;5455;53.224;6.000;2023-05-10T12:20:20;4.40;;;3.60;;
10805;SDS011;5455;53.224;6.000;2023-05-10T12:22:51;5.50;;;3.97;;
10805;SDS011;5455;53.224;6.000;2023-05-10T12:25:29;6.17;;;4.23;;
10805;SDS011;5455;53.224;6.000;2023-05-10T12:27:58;6.63;;;4.67;;
10805;SDS011;5455;53.224;6.000;2023-05-10T12:30:28;7.30;;;5.10;;
10805;SDS011;5455;53.224;6.000;2023-05-10T12:33:08;9.10;;;4.83;;
10805;SDS011;5455;53.224;6.000;2023-05-10T12:35:47;6.13;;;4.27;;
10805;SDS011;5455;53.224;6.000;2023-05-10T12:38:37;5.60;;;4.03;;
10805;SDS011;5455;53.224;6.000;2023-05-10T12:41:17;7.87;;;4.33;;
10805;SDS011;5455;53.224;6.000;2023-05-10T12:43:44;7.27;;;4.07;;
10805;SDS011;5455;53.224;6.000;2023-05-10T12:46:13;6.43;;;3.90;;
10805;SDS011;5455;53.224;6.000;2023-05-10T12:48:42;5.67;;;3.50;;
10805;SDS011;5455;53.224;6.000;2023-05-10T12:51:10;5.80;;;3.90;;
10805;SDS011;5455;53.224;6.000;2023-05-10T12:53:39;7.40;;;3.90;;
10805;SDS011;5455;53.224;6.000;2023-05-10T12:56:10;4.60;;;3.93;;
10805;SDS011;5455;53.224;6.000;2023-05-10T12:58:38;5.47;;;3.70;;
10805;SDS011;5455;53.224;6.000;2023-05-10T13:01:05;6.67;;;4.43;;
10805;SDS011;5455;53.224;6.000;2023-05-10T13:03:32;5.10;;;2.83;;
10805;SDS011;5455;53.224;6.000;2023-05-10T13:05:59;5.23;;;3.50;;
10805;SDS011;5455;53.224;6.000;2023-05-10T13:08:27;8.83;;;4.00;;
10805;SDS011;5455;53.224;6.000;2023-05-10T13:10:56;7.03;;;3.70;;
10805;SDS011;5455;53.224;6.000;2023-05-10T13:13:23;8.00;;;3.77;;
10805;SDS011;5455;53.224;6.000;2023-05-10T13:15:50;5.97;;;4.00;;
10805;SDS011;5455;53.224;6.000;2023-05-10T13:18:17;4.77;;;3.60;;
10805;SDS011;5455;53.224;6.000;2023-05-10T13:20:44;6.27;;;3.57;;
10805;SDS011;5455;53.224;6.000;2023-05-10T13:23:11;6.33;;;3.80;;
10805;SDS011;5455;53.224;6.000;2023-05-10T13:25:38;5.33;;;3.37;;
10805;SDS011;5455;53.224;6.000;2023-05-10T13:28:05;7.17;;;4.23;;
10805;SDS011;5455;53.224;6.000;2023-05-10T13:30:32;5.97;;;3.73;;
10805;SDS011;5455;53.224;6.000;2023-05-10T13:32:59;4.57;;;3.07;;
10805;SDS011;5455;53.224;6.000;2023-05-10T13:35:27;5.90;;;4.10;;
10805;SDS011;5455;53.224;6.000;2023-05-10T13:37:54;5.23;;;3.33;;
10805;SDS011;5455;53.224;6.000;2023-05-10T13:40:24;3.90;;;3.27;;
10805;SDS011;5455;53.224;6.000;2023-05-10T13:42:51;4.73;;;3.20;;
10805;SDS011;5455;53.224;6.000;2023-05-10T13:45:19;7.17;;;3.33;;
10805;SDS011;5455;53.224;6.000;2023-05-10T13:47:46;6.53;;;4.37;;
10805;SDS011;5455;53.224;6.000;2023-05-10T13:50:13;7.23;;;4.10;;
10805;SDS011;5455;53.224;6.000;2023-05-10T13:52:40;5.23;;;3.50;;
10805;SDS011;5455;53.224;6.000;2023-05-10T13:55:07;5.37;;;3.33;;
10805;SDS011;5455;53.224;6.000;2023-05-10T13:57:34;4.03;;;3.30;;
10805;SDS011;5455;53.224;6.000;2023-05-10T14:00:02;4.70;;;2.67;;
10805;SDS011;5455;53.224;6.000;2023-05-10T14:02:33;4.50;;;3.10;;
10805;SDS011;5455;53.224;6.000;2023-05-10T14:05:00;3.10;;;2.10;;
10805;SDS011;5455;53.224;6.000;2023-05-10T14:07:28;3.90;;;2.40;;
10805;SDS011;5455;53.224;6.000;2023-05-10T14:09:54;5.80;;;2.50;;
10805;SDS011;5455;53.224;6.000;2023-05-10T14:12:21;2.80;;;2.40;;
10805;SDS011;5455;53.224;6.000;2023-05-10T14:14:48;3.60;;;2.63;;
10805;SDS011;5455;53.224;6.000;2023-05-10T14:17:15;3.07;;;2.17;;
10805;SDS011;5455;53.224;6.000;2023-05-10T14:19:42;2.10;;;1.90;;
10805;SDS011;5455;53.224;6.000;2023-05-10T14:22:09;4.23;;;2.00;;
10805;SDS011;5455;53.224;6.000;2023-05-10T14:24:37;1.83;;;1.67;;
10805;SDS011;5455;53.224;6.000;2023-05-10T14:27:05;4.30;;;2.10;;
10805;SDS011;5455;53.224;6.000;2023-05-10T14:29:32;2.43;;;1.77;;
10805;SDS011;5455;53.224;6.000;2023-05-10T14:31:59;3.10;;;2.70;;
10805;SDS011;5455;53.224;6.000;2023-05-10T14:34:26;2.83;;;2.50;;
10805;SDS011;5455;53.224;6.000;2023-05-10T14:36:53;2.77;;;2.47;;
10805;SDS011;5455;53.224;6.000;2023-05-10T14:39:20;3.23;;;2.70;;
10805;SDS011;5455;53.224;6.000;2023-05-10T14:41:48;2.23;;;2.00;;
10805;SDS011;5455;53.224;6.000;2023-05-10T14:44:15;2.40;;;1.97;;
10805;SDS011;5455;53.224;6.000;2023-05-10T14:46:42;2.70;;;1.97;;
10805;SDS011;5455;53.224;6.000;2023-05-10T14:49:09;2.00;;;1.77;;
10805;SDS011;5455;53.224;6.000;2023-05-10T14:51:36;2.37;;;1.83;;
10805;SDS011;5455;53.224;6.000;2023-05-10T14:54:03;2.13;;;1.90;;
10805;SDS011;5455;53.224;6.000;2023-05-10T14:56:30;2.33;;;1.70;;
10805;SDS011;5455;53.224;6.000;2023-05-10T14:58:58;3.43;;;2.10;;
10805;SDS011;5455;53.224;6.000;2023-05-10T15:01:26;2.33;;;1.77;;
10805;SDS011;5455;53.224;6.000;2023-05-10T15:03:54;2.30;;;1.77;;
10805;SDS011;5455;53.224;6.000;2023-05-10T15:06:30;2.20;;;2.00;;
10805;SDS011;5455;53.224;6.000;2023-05-10T15:08:58;2.63;;;1.90;;
10805;SDS011;5455;53.224;6.000;2023-05-10T15:11:26;2.50;;;1.93;;
10805;SDS011;5455;53.224;6.000;2023-05-10T15:13:53;3.57;;;2.30;;
10805;SDS011;5455;53.224;6.000;2023-05-10T15:16:20;4.40;;;2.80;;
10805;SDS011;5455;53.224;6.000;2023-05-10T15:18:48;6.00;;;2.80;;
10805;SDS011;5455;53.224;6.000;2023-05-10T15:21:15;3.67;;;3.30;;
10805;SDS011;5455;53.224;6.000;2023-05-10T15:23:42;7.40;;;2.50;;
10805;SDS011;5455;53.224;6.000;2023-05-10T15:26:09;3.33;;;2.40;;
10805;SDS011;5455;53.224;6.000;2023-05-10T15:28:36;3.53;;;2.67;;
10805;SDS011;5455;53.224;6.000;2023-05-10T15:31:03;3.33;;;2.73;;
10805;SDS011;5455;53.224;6.000;2023-05-10T15:33:30;4.60;;;2.60;;
10805;SDS011;5455;53.224;6.000;2023-05-10T15:35:57;3.93;;;2.43;;
10805;SDS011;5455;53.224;6.000;2023-05-10T15:38:24;3.07;;;2.77;;
10805;SDS011;5455;53.224;6.000;2023-05-10T15:40:51;3.90;;;2.70;;
10805;SDS011;5455;53.224;6.000;2023-05-10T15:43:23;3.43;;;2.47;;
10805;SDS011;5455;53.224;6.000;2023-05-10T15:45:50;3.27;;;2.50;;
10805;SDS011;5455;53.224;6.000;2023-05-10T15:48:17;3.23;;;2.63;;
10805;SDS011;5455;53.224;6.000;2023-05-10T15:50:44;3.87;;;2.87;;